Time;durP1;ratioP1;P1;durP2;ratioP2;P2;SDS_P1;SDS_P2;PMS_P1;PMS_P2;Temp;Humidity;BMP_temperature;BMP_pressure;BME280_temperature;BME280_humidity;BME280_pressure;Samples;Min_cycle;Max_cycle;Signal;HPM_P1;HPM_P2
2022/06/17 00:01:03;;;;;;;20.90;5.95;;;;;;;13.75;100.00;101590.81;4904275;29;20028;-90
2022/06/17 00:03:32;;;;;;;22.08;6.05;;;;;;;13.61;100.00;101563.72;4903956;29;20009;-89
2022/06/17 00:06:00;;;;;;;22.80;6.05;;;;;;;13.84;100.00;101605.81;4903707;29;20060;-90
2022/06/17 00:08:31;;;;;;;20.20;6.03;;;;;;;13.85;100.00;101605.66;4887033;29;20070;-91
2022/06/17 00:10:57;;;;;;;23.77;6.20;;;;;;;14.41;100.00;101702.06;4904192;29;20017;-90
2022/06/17 00:13:26;;;;;;;21.23;5.97;;;;;;;14.39;100.00;101695.19;4887506;29;20089;-90
2022/06/17 00:15:52;;;;;;;18.67;5.95;;;;;;;13.64;100.00;101581.38;4903697;29;20029;-89
2022/06/17 00:18:20;;;;;;;20.88;5.97;;;;;;;14.39;100.00;101697.88;4903855;29;20041;-90
2022/06/17 00:20:48;;;;;;;26.90;6.78;;;;;;;14.28;100.00;101658.69;4888129;29;20036;-90
2022/06/17 00:23:17;;;;;;;20.55;6.25;;;;;;;13.62;100.00;101562.66;4903366;29;20029;-90
2022/06/17 00:25:45;;;;;;;26.25;6.03;;;;;;;13.63;100.00;101548.09;4887147;29;20009;-91
2022/06/17 00:28:20;;;;;;;27.15;6.45;;;;;;;13.76;100.00;101551.91;4887267;29;20061;-91
2022/06/17 00:30:47;;;;;;;22.27;6.50;;;;;;;14.05;100.00;101597.59;4887560;29;20008;-90
2022/06/17 00:33:13;;;;;;;23.02;5.90;;;;;;;13.68;100.00;101523.19;4902885;29;20029;-90
2022/06/17 00:35:59;;;;;;;30.38;6.13;;;;;;;14.78;100.00;101678.25;4902548;29;20057;-90
2022/06/17 00:38:28;;;;;;;22.38;5.50;;;;;;;14.55;100.00;101624.44;4881316;29;20089;-91
2022/06/17 00:40:55;;;;;;;25.02;5.65;;;;;;;14.03;100.00;101544.72;4901424;29;20013;-91
2022/06/17 00:43:33;;;;;;;26.25;5.78;;;;;;;14.26;100.00;101569.56;4902764;29;20068;-90
2022/06/17 00:46:23;;;;;;;28.55;5.50;;;;;;;15.07;100.00;101689.75;4902700;29;20029;-89
2022/06/17 00:49:16;;;;;;;19.98;5.35;;;;;;;15.12;100.00;101685.38;4886054;29;20025;-91
2022/06/17 00:51:48;;;;;;;26.00;5.55;;;;;;;14.18;100.00;101536.44;4886007;29;20048;-89
2022/06/17 00:54:26;;;;;;;23.55;5.72;;;;;;;15.15;100.00;101692.25;4891093;29;20055;-90
2022/06/17 00:56:52;;;;;;;26.42;6.10;;;;;;;14.18;100.00;101555.38;4879493;29;20076;-89
2022/06/17 00:59:19;;;;;;;33.15;6.00;;;;;;;14.73;100.00;101635.50;4879976;29;20048;-89
2022/06/17 01:01:50;;;;;;;20.75;5.63;;;;;;;15.04;100.00;101680.16;4884773;29;20028;-90
2022/06/17 01:04:25;;;;;;;24.10;5.97;;;;;;;14.34;100.00;101577.50;4875373;29;20032;-89
2022/06/17 01:07:00;;;;;;;22.05;5.82;;;;;;;15.11;100.00;101701.84;4864739;29;20041;-90
2022/06/17 01:12:19;;;;;;;25.40;6.05;;;;;;;14.35;100.00;101583.75;4884404;29;20024;-89
2022/06/17 01:14:44;;;;;;;21.02;5.53;;;;;;;14.49;100.00;101587.31;4866850;29;20025;-90
2022/06/17 01:17:14;;;;;;;28.58;6.05;;;;;;;14.43;100.00;101586.25;4883391;29;20028;-90
2022/06/17 01:19:43;;;;;;;20.20;5.93;;;;;;;15.10;100.00;101673.06;4883201;29;20036;-89
2022/06/17 01:22:27;;;;;;;24.45;5.72;;;;;;;15.28;100.00;101686.84;4867561;29;20010;-90
2022/06/17 01:24:58;;;;;;;21.50;6.00;;;;;;;14.43;100.00;101558.34;4867457;29;20022;-89
2022/06/17 01:27:28;;;;;;;29.25;6.13;;;;;;;14.46;100.00;101553.34;4867489;29;20048;-90
2022/06/17 01:29:54;;;;;;;24.35;5.68;;;;;;;14.87;100.00;101622.81;4867685;29;20058;-90
2022/06/17 01:32:25;;;;;;;26.25;6.13;;;;;;;15.36;100.00;101689.31;4868160;29;20014;-90
2022/06/17 01:34:52;;;;;;;22.33;5.82;;;;;;;15.10;100.00;101645.94;4883811;29;20086;-90
2022/06/17 01:37:18;;;;;;;25.73;6.40;;;;;;;14.83;100.00;101608.00;4868266;29;20029;-90
2022/06/17 01:39:45;;;;;;;29.48;6.22;;;;;;;15.32;100.00;101677.22;4868101;29;20026;-90
2022/06/17 01:42:11;;;;;;;26.63;6.40;;;;;;;14.66;100.00;101577.78;4868087;29;20030;-90
2022/06/17 01:44:40;;;;;;;23.60;6.25;;;;;;;14.48;100.00;101553.97;4884438;29;20026;-89
2022/06/17 01:47:11;;;;;;;23.95;6.40;;;;;;;15.32;100.00;101679.94;4879546;29;20065;-90
2022/06/17 01:49:52;;;;;;;24.73;6.30;;;;;;;15.35;100.00;101693.09;4886817;29;20036;-89
2022/06/17 01:52:33;;;;;;;23.40;5.80;;;;;;;14.64;100.00;101577.16;4886720;29;20016;-89
2022/06/17 01:55:08;;;;;;;31.63;6.70;;;;;;;14.37;100.00;101546.47;4886984;29;20017;-89
2022/06/17 01:57:43;;;;;;;25.48;6.30;;;;;;;14.65;100.00;101583.41;4902752;29;20075;-87
2022/06/17 02:00:19;;;;;;;28.48;6.55;;;;;;;14.47;100.00;101565.88;4888847;29;20041;-90
2022/06/17 02:02:52;;;;;;;33.90;6.88;;;;;;;14.43;100.00;101559.16;4871064;29;20025;-89
2022/06/17 02:05:21;;;;;;;23.55;6.25;;;;;;;15.31;100.00;101694.56;4887621;29;20041;-90
2022/06/17 02:07:54;;;;;;;22.58;5.78;;;;;;;14.57;100.00;101579.88;4887742;29;20022;-90
2022/06/17 02:10:25;;;;;;;29.08;6.50;;;;;;;14.56;100.00;101578.16;4886754;29;20052;-90
2022/06/17 02:12:51;;;;;;;25.10;6.28;;;;;;;14.74;100.00;101606.56;4886772;29;20044;-90
2022/06/17 02:15:17;;;;;;;18.90;5.50;;;;;;;14.71;100.00;101602.38;4886767;29;20017;-90
2022/06/17 02:17:46;;;;;;;25.63;6.40;;;;;;;15.14;100.00;101658.06;4900273;29;20057;-89
2022/06/17 02:20:13;;;;;;;24.38;5.80;;;;;;;15.40;100.00;101687.06;4885230;29;20035;-87
2022/06/17 02:22:40;;;;;;;18.00;6.38;;;;;;;15.41;100.00;101697.69;4893210;29;20032;-89
2022/06/17 02:25:09;;;;;;;23.45;6.28;;;;;;;14.79;100.00;101595.91;4887198;29;20025;-90
2022/06/17 02:27:36;;;;;;;25.55;6.20;;;;;;;14.59;100.00;101554.44;4887164;29;20030;-89
2022/06/17 02:30:05;;;;;;;27.52;6.65;;;;;;;14.72;100.00;101568.00;4870981;29;20021;-90
2022/06/17 02:32:32;;;;;;;21.65;5.90;;;;;;;14.97;100.00;101596.13;4887604;29;20062;-90
2022/06/17 02:35:29;;;;;;;25.95;5.97;;;;;;;14.82;100.00;101557.56;4887433;29;20020;-89
2022/06/17 02:37:55;;;;;;;24.02;5.70;;;;;;;15.07;100.00;101565.06;4871549;29;20026;-90
2022/06/17 02:40:35;;;;;;;20.52;5.38;;;;;;;15.59;100.00;101595.81;4886756;29;20041;-90
2022/06/17 02:43:04;;;;;;;19.70;4.90;;;;;;;15.62;100.00;101549.28;4886777;29;20020;-90
2022/06/17 02:45:35;;;;;;;26.25;6.20;;;;;;;15.94;100.00;101559.19;4885763;29;20020;-90
2022/06/17 02:48:04;;;;;;;25.85;6.07;;;;;;;16.78;100.00;101657.75;4870178;29;20029;-91
2022/06/17 02:50:31;;;;;;;22.90;5.65;;;;;;;16.39;100.00;101551.00;4870852;29;20002;-90
2022/06/17 02:53:00;;;;;;;27.13;5.68;;;;;;;16.73;100.00;101567.91;4887417;29;20041;-90
2022/06/17 02:55:39;;;;;;;20.30;4.80;;;;;;;17.06;100.00;101567.63;4986545;24;20086;-81
2022/06/17 02:58:23;;;;;;;24.17;5.57;;;;;;;17.23;100.00;101550.75;5052737;24;20058;-89
2022/06/17 03:00:51;;;;;;;21.38;5.20;;;;;;;17.56;100.00;101572.97;4867641;29;20034;-89
2022/06/17 03:03:19;;;;;;;17.38;4.38;;;;;;;18.18;100.00;101629.22;4850912;29;20084;-89
2022/06/17 03:05:46;;;;;;;17.08;4.90;;;;;;;18.14;100.00;101615.22;4845486;29;20038;-89
2022/06/17 03:08:22;;;;;;;22.58;4.75;;;;;;;18.45;100.00;101591.56;4844662;29;20027;-89
2022/06/17 03:10:49;;;;;;;16.20;4.72;;;;;;;18.78;100.00;101631.97;4847235;29;20030;-89
2022/06/17 03:13:34;;;;;;;17.50;4.70;;;;;;;18.57;100.00;101548.78;4848180;29;20037;-89
2022/06/17 03:16:02;;;;;;;;;;;;;;;19.74;100.00;101683.69;4856972;29;20042;-89
2022/06/17 03:18:28;;;;;;;15.73;4.40;;;;;;;19.02;100.00;101540.09;4866490;29;19908;-91
2022/06/17 03:20:54;;;;;;;16.05;4.65;;;;;;;19.34;100.00;101553.38;4868434;29;20029;-91
2022/06/17 03:23:27;;;;;;;21.63;4.03;;;;;;;19.60;100.00;101563.78;4867443;29;20021;-91
2022/06/17 03:28:43;;;;;;;17.00;4.55;;;;;;;20.04;100.00;101553.22;4828586;29;20061;-88
2022/06/17 03:31:14;;;;;;;17.98;4.35;;;;;;;20.33;99.38;101589.56;4813275;29;20023;-88
2022/06/17 03:33:57;;;;;;;18.25;4.22;;;;;;;21.11;98.30;101688.31;4828424;29;20022;-89
2022/06/17 03:36:40;;;;;;;19.10;4.22;;;;;;;20.24;97.19;101547.28;5078950;24;20049;-89
2022/06/17 03:39:31;;;;;;;15.55;4.00;;;;;;;20.60;96.86;101591.72;4889306;29;20016;-91
2022/06/17 03:42:07;;;;;;;18.85;4.85;;;;;;;21.32;95.70;101673.91;5623759;24;20017;-89
2022/06/17 03:44:38;;;;;;;19.83;4.28;;;;;;;20.54;95.27;101557.97;4887691;29;20088;-90
2022/06/17 03:47:27;;;;;;;17.48;4.05;;;;;;;20.85;94.68;101602.22;4887693;29;20012;-90
2022/06/17 03:49:57;;;;;;;21.58;4.30;;;;;;;20.52;94.29;101562.84;4887934;29;20066;-90
2022/06/17 03:52:45;;;;;;;15.88;4.20;;;;;;;21.39;93.88;101692.06;4878916;29;20073;-90
2022/06/17 03:55:17;;;;;;;16.70;3.60;;;;;;;21.31;93.61;101696.84;4862193;29;20105;-90
2022/06/17 03:57:46;;;;;;;20.15;4.00;;;;;;;20.59;93.20;101570.88;4885631;29;20018;-90
2022/06/17 04:00:36;;;;;;;15.95;4.20;;;;;;;21.49;92.39;101695.81;4869716;29;20025;-89
2022/06/17 04:03:04;;;;;;;20.65;4.28;;;;;;;20.56;92.57;101580.44;4868791;29;20031;-88
2022/06/17 04:05:31;;;;;;;13.43;3.97;;;;;;;21.00;91.97;101626.28;4868607;29;20048;-90
2022/06/17 04:07:59;;;;;;;14.65;4.20;;;;;;;21.36;91.36;101657.81;4869249;29;20068;-88
2022/06/17 04:10:28;;;;;;;15.20;4.30;;;;;;;21.08;90.77;101610.28;4869422;29;20029;-91
2022/06/17 04:12:54;;;;;;;14.80;4.20;;;;;;;21.14;90.50;101635.81;4869068;29;20118;-88
2022/06/17 04:15:29;;;;;;;14.02;3.97;;;;;;;21.56;91.06;101704.69;4893669;29;20045;-90
2022/06/17 04:20:35;;;;;;;11.75;4.22;;;;;;;21.32;90.74;101668.41;4905489;24;20050;-87
2022/06/17 04:23:07;;;;;;;13.63;3.70;;;;;;;21.64;90.26;101697.13;4848799;29;20022;-86
2022/06/17 04:28:14;;;;;;;15.55;3.78;;;;;;;21.35;91.57;101706.25;4899213;24;20054;-88
2022/06/17 04:30:43;;;;;;;15.48;4.20;;;;;;;20.67;92.23;101611.50;4885128;29;20045;-90
2022/06/17 04:33:34;;;;;;;16.52;4.22;;;;;;;20.61;91.90;101574.22;4884053;29;20049;-89
2022/06/17 04:38:57;;;;;;;13.30;3.72;;;;;;;20.57;92.80;101584.00;5248652;24;20041;-89
2022/06/17 04:41:28;;;;;;;18.23;3.78;;;;;;;20.64;92.71;101584.66;4899333;29;20005;-90
2022/06/17 04:43:56;;;;;;;16.02;4.53;;;;;;;20.47;92.83;101570.13;4885041;29;20081;-90
2022/06/17 05:02:10;;;;;;;9.65;3.55;;;;;;;19.81;97.61;101581.44;5425494;24;20061;-90
2022/06/17 05:04:36;;;;;;;14.25;3.92;;;;;;;20.47;98.79;101717.75;4879202;29;20059;-83
2022/06/17 05:07:02;;;;;;;12.15;3.80;;;;;;;19.95;98.57;101625.69;4878526;29;20021;-85
2022/06/17 05:09:34;;;;;;;12.70;3.92;;;;;;;20.77;98.01;101729.31;5384518;24;20028;-88
2022/06/17 05:12:14;;;;;;;18.30;4.00;;;;;;;19.95;98.76;101625.69;4868094;29;20021;-90
2022/06/17 05:14:57;;;;;;;18.05;3.78;;;;;;;20.02;99.13;101661.06;4855898;29;20052;-91
2022/06/17 05:17:23;;;;;;;15.93;4.32;;;;;;;19.88;100.00;101663.22;4873973;29;20077;-90
2022/06/17 05:19:48;;;;;;;14.20;3.53;;;;;;;19.48;100.00;101625.75;4860766;29;20023;-90
2022/06/17 05:22:26;;;;;;;12.27;3.60;;;;;;;20.06;100.00;101734.09;4855612;29;20068;-90
2022/06/17 05:27:27;;;;;;;13.82;3.60;;;;;;;19.94;100.00;101728.66;4959212;24;20086;-89
2022/06/17 05:32:27;;;;;;;15.80;4.15;;;;;;;19.39;100.00;101624.44;5073825;24;20054;-92
2022/06/17 05:34:53;;;;;;;10.05;3.22;;;;;;;19.58;100.00;101652.44;4872383;29;20060;-91
2022/06/17 05:37:18;;;;;;;14.77;3.13;;;;;;;19.35;100.00;101625.97;4880719;29;20018;-89
2022/06/17 05:39:44;;;;;;;15.05;4.05;;;;;;;19.61;100.00;101658.25;4862081;29;20068;-90
2022/06/17 05:42:11;;;;;;;10.80;3.30;;;;;;;19.38;100.00;101620.88;4870153;29;20133;-90
2022/06/17 05:44:37;;;;;;;14.48;3.47;;;;;;;19.15;100.00;101602.59;4859564;29;20036;-90
2022/06/17 05:47:03;;;;;;;13.23;3.33;;;;;;;19.82;100.00;101703.25;4853739;29;20046;-90
2022/06/17 05:59:49;;;;;;;13.38;3.30;;;;;;;19.27;100.00;101656.34;5170322;24;20485;-88
2022/06/17 06:02:17;;;;;;;13.48;3.65;;;;;;;19.59;100.00;101709.50;4853159;29;20037;-82
2022/06/17 06:04:43;;;;;;;14.15;3.88;;;;;;;18.93;100.00;101607.78;4848797;29;20028;-84
2022/06/17 06:07:09;;;;;;;16.52;4.00;;;;;;;19.10;100.00;101629.75;4868984;29;20046;-86
2022/06/17 06:09:34;;;;;;;11.07;3.60;;;;;;;18.94;100.00;101603.16;4852133;29;20104;-86
2022/06/17 06:12:00;;;;;;;14.45;4.03;;;;;;;19.24;100.00;101653.03;4857026;29;20036;-87
2022/06/17 06:14:25;;;;;;;17.80;3.60;;;;;;;19.47;100.00;101701.34;4871727;29;20046;-87
2022/06/17 06:16:51;;;;;;;14.40;3.90;;;;;;;19.70;100.00;101713.34;4851234;29;20045;-83
2022/06/17 06:19:17;;;;;;;13.40;3.55;;;;;;;19.89;100.00;101758.56;4868447;29;20018;-87
2022/06/17 06:21:42;;;;;;;10.90;3.50;;;;;;;19.75;100.00;101734.50;4872053;29;20029;-86
2022/06/17 06:24:08;;;;;;;13.85;3.65;;;;;;;19.00;100.00;101616.69;4922975;24;20061;-87
2022/06/17 06:26:33;;;;;;;10.65;3.47;;;;;;;19.76;100.00;101744.34;4867769;29;20033;-85
2022/06/17 06:28:59;;;;;;;14.32;3.63;;;;;;;19.04;100.00;101640.75;4963659;24;20062;-87
2022/06/17 06:31:28;;;;;;;12.73;3.90;;;;;;;19.04;100.00;101633.44;4853489;29;20081;-86
2022/06/17 06:33:54;;;;;;;15.95;3.42;;;;;;;18.79;100.00;101614.53;4873240;29;20030;-87
2022/06/17 06:36:20;;;;;;;9.73;3.35;;;;;;;19.78;100.00;101759.44;4851966;29;20046;-90
2022/06/17 06:38:45;;;;;;;14.20;4.13;;;;;;;19.58;100.00;101750.72;4895771;24;20033;-80
2022/06/17 06:41:11;;;;;;;14.73;3.72;;;;;;;19.73;100.00;101763.94;4839254;29;20042;-80
2022/06/17 06:43:36;;;;;;;11.70;3.55;;;;;;;19.57;100.00;101741.69;4829407;29;20345;-80
2022/06/17 06:46:08;;;;;;;15.95;3.90;;;;;;;19.70;100.00;101760.63;4841108;29;20033;-80
2022/06/17 06:48:34;;;;;;;10.18;3.60;;;;;;;19.52;100.00;101730.66;4849838;29;20052;-80
2022/06/17 06:51:00;;;;;;;12.10;3.42;;;;;;;19.63;100.00;101767.22;4852918;29;20494;-80
2022/06/17 06:53:25;;;;;;;14.15;3.35;;;;;;;19.71;100.00;101772.38;4838147;29;20101;-80
2022/06/17 06:55:50;;;;;;;10.77;3.70;;;;;;;19.23;100.00;101703.19;4821070;29;20072;-79
2022/06/17 06:58:19;;;;;;;12.18;3.67;;;;;;;19.67;100.00;101774.75;4828245;29;20049;-79
2022/06/17 07:00:48;;;;;;;10.88;3.58;;;;;;;19.65;100.00;101782.31;4839428;29;20043;-79
2022/06/17 07:03:14;;;;;;;16.13;3.90;;;;;;;19.66;100.00;101772.22;4846864;29;20057;-79
2022/06/17 07:05:43;;;;;;;13.57;4.07;;;;;;;19.65;100.00;101778.78;4824918;29;20432;-80
2022/06/17 07:08:11;;;;;;;13.52;3.58;;;;;;;19.72;100.00;101779.47;4853007;29;20033;-79
2022/06/17 07:10:37;;;;;;;11.93;3.65;;;;;;;19.65;100.00;101779.59;4835560;29;20045;-79
2022/06/17 07:13:05;;;;;;;15.55;3.95;;;;;;;19.57;100.00;101777.19;4850625;29;20068;-79
2022/06/17 07:15:31;;;;;;;15.48;4.20;;;;;;;19.58;100.00;101781.56;4836446;29;20052;-79
2022/06/17 07:17:58;;;;;;;12.40;3.33;;;;;;;19.64;100.00;101777.94;4847232;29;20520;-79
2022/06/17 07:20:25;;;;;;;15.18;3.70;;;;;;;19.67;100.00;101773.91;4840032;29;20042;-79
2022/06/17 07:22:51;;;;;;;15.75;3.47;;;;;;;19.66;100.00;101781.25;4855124;29;20086;-80
2022/06/17 07:25:17;;;;;;;12.05;3.88;;;;;;;19.63;100.00;101783.59;4835989;29;20057;-79
2022/06/17 07:28:03;;;;;;;13.55;4.15;;;;;;;19.50;100.00;101765.53;4823461;29;20387;-79
2022/06/17 07:30:30;;;;;;;13.50;3.95;;;;;;;19.47;100.00;101772.31;4860975;29;20069;-79
2022/06/17 07:32:56;;;;;;;13.90;4.07;;;;;;;19.42;100.00;101774.06;4848921;29;20125;-79
2022/06/17 07:35:22;;;;;;;13.80;4.25;;;;;;;19.44;100.00;101770.03;4837961;29;20041;-79
2022/06/17 07:40:32;;;;;;;13.02;3.97;;;;;;;19.71;100.00;101783.28;4852319;29;20052;-79
2022/06/17 07:42:58;;;;;;;14.50;4.47;;;;;;;19.60;100.00;101760.34;4819872;29;20447;-79
2022/06/17 07:45:24;;;;;;;14.10;4.03;;;;;;;19.81;100.00;101785.44;4860082;29;20037;-79
2022/06/17 07:47:51;;;;;;;14.38;3.95;;;;;;;19.78;100.00;101785.91;4866666;29;20037;-80
2022/06/17 07:50:21;;;;;;;10.98;3.90;;;;;;;19.86;100.00;101788.28;4856857;29;20130;-79
2022/06/17 07:52:47;;;;;;;15.38;4.10;;;;;;;20.01;100.00;101793.28;4835365;29;20037;-79
2022/06/17 07:55:13;;;;;;;13.32;3.95;;;;;;;19.97;100.00;101789.34;4849740;29;20480;-80
2022/06/17 07:57:38;;;;;;;11.90;3.97;;;;;;;19.64;100.00;101767.03;4822323;29;20026;-80
2022/06/17 08:00:06;;;;;;;9.27;3.60;;;;;;;19.56;100.00;101780.97;4837815;29;20045;-78
2022/06/17 08:02:31;;;;;;;12.13;4.00;;;;;;;19.46;100.00;101775.25;4827014;29;20117;-79
2022/06/17 08:04:56;;;;;;;16.02;4.30;;;;;;;19.69;100.00;101788.16;4812122;29;20050;-80
2022/06/17 08:07:22;;;;;;;17.38;4.68;;;;;;;19.80;100.00;101791.94;4856235;29;20101;-80
2022/06/17 08:09:47;;;;;;;10.75;3.70;;;;;;;19.84;100.00;101782.22;4843745;29;20131;-80
2022/06/17 08:12:13;;;;;;;14.88;4.45;;;;;;;19.61;100.00;101756.53;4844868;29;20113;-79
2022/06/17 08:14:43;;;;;;;19.92;4.60;;;;;;;19.42;100.00;101757.69;4855057;29;20021;-80
2022/06/17 08:17:11;;;;;;;14.20;4.93;;;;;;;19.23;100.00;101756.94;4838858;29;20040;-80
2022/06/17 08:19:37;;;;;;;12.70;4.18;;;;;;;19.28;100.00;101789.81;4862946;29;20025;-82
2022/06/17 08:22:02;;;;;;;17.27;4.50;;;;;;;19.14;100.00;101772.81;4842818;29;20483;-83
2022/06/17 08:24:28;;;;;;;13.75;3.97;;;;;;;19.40;100.00;101795.28;4848923;29;20502;-79
2022/06/17 08:26:53;;;;;;;14.40;4.18;;;;;;;19.25;100.00;101763.00;4844626;29;20018;-82
2022/06/17 08:29:20;;;;;;;11.95;4.03;;;;;;;19.37;100.00;101793.03;4835971;29;20041;-80
2022/06/17 08:31:46;;;;;;;11.85;4.10;;;;;;;19.23;100.00;101774.13;4832270;29;20034;-81
2022/06/17 08:34:11;;;;;;;13.27;4.18;;;;;;;19.28;100.00;101778.09;4851756;29;20046;-80
2022/06/17 08:36:37;;;;;;;14.02;4.55;;;;;;;19.20;100.00;101790.13;4831558;29;20043;-79
2022/06/17 08:39:08;;;;;;;13.77;3.92;;;;;;;19.24;100.00;101780.44;4830323;29;20058;-80
2022/06/17 08:41:38;;;;;;;12.32;4.40;;;;;;;19.45;100.00;101804.47;4853202;29;20066;-80
2022/06/17 08:44:03;;;;;;;11.82;4.55;;;;;;;19.51;100.00;101812.78;4843641;29;20041;-80
2022/06/17 08:46:35;;;;;;;10.68;3.58;;;;;;;19.29;100.00;101809.75;4844563;29;20026;-79
2022/06/17 08:49:06;;;;;;;8.95;3.28;;;;;;;19.38;100.00;101808.38;4826277;29;20485;-80
2022/06/17 08:51:56;;;;;;;11.45;4.03;;;;;;;19.40;100.00;101809.81;4829349;29;20614;-80
2022/06/17 08:54:28;;;;;;;9.60;4.05;;;;;;;19.17;100.00;101809.69;4839322;29;20460;-80
2022/06/17 08:57:19;;;;;;;9.35;3.22;;;;;;;19.28;100.00;101808.94;4845548;29;20040;-80
2022/06/17 08:59:44;;;;;;;9.50;3.70;;;;;;;19.40;100.00;101826.19;4845911;29;20033;-80
2022/06/17 09:02:21;;;;;;;10.95;3.60;;;;;;;19.45;100.00;101822.75;4862603;29;20584;-79
2022/06/17 09:04:51;;;;;;;8.70;3.67;;;;;;;19.32;100.00;101814.75;4850092;29;20026;-79
2022/06/17 09:07:44;;;;;;;8.30;3.63;;;;;;;19.34;100.00;101812.63;4842790;29;20049;-80
2022/06/17 09:10:17;;;;;;;7.25;3.40;;;;;;;19.53;100.00;101814.19;4845796;29;20041;-80
2022/06/17 09:13:12;;;;;;;8.02;2.95;;;;;;;19.61;100.00;101819.34;4859557;29;20025;-79
2022/06/17 09:15:41;;;;;;;6.65;3.03;;;;;;;19.74;100.00;101812.84;4841370;29;20460;-80
2022/06/17 09:18:29;;;;;;;9.32;3.22;;;;;;;19.90;98.94;101812.16;4852565;29;20045;-79
2022/06/17 09:21:25;;;;;;;8.30;3.10;;;;;;;19.93;98.83;101817.16;4846172;29;20037;-80
2022/06/17 09:23:53;;;;;;;8.38;3.28;;;;;;;19.84;98.58;101810.38;4857859;29;20052;-79
2022/06/17 09:26:26;;;;;;;8.07;2.83;;;;;;;19.85;99.02;101819.41;4859883;29;20452;-80
2022/06/17 09:28:57;;;;;;;6.67;2.80;;;;;;;19.81;98.36;101810.84;4845244;29;20022;-79
2022/06/17 09:31:33;;;;;;;7.22;3.03;;;;;;;19.95;97.78;101827.84;4837325;29;20790;-80
2022/06/17 09:34:16;;;;;;;9.32;3.42;;;;;;;20.01;97.62;101815.13;4846331;29;20364;-80
2022/06/17 09:36:50;;;;;;;7.50;2.60;;;;;;;20.14;96.45;101815.72;4843543;29;20026;-80
2022/06/17 09:39:40;;;;;;;7.00;2.97;;;;;;;20.09;96.93;101826.53;4831449;29;20113;-81
2022/06/17 09:42:12;;;;;;;10.38;3.30;;;;;;;19.91;98.07;101826.66;4842138;29;20071;-81
2022/06/17 09:44:57;;;;;;;10.10;3.22;;;;;;;19.73;99.90;101824.81;4850914;29;20030;-80
2022/06/17 09:47:46;;;;;;;8.90;3.40;;;;;;;19.88;99.79;101830.69;4850570;29;20037;-83
2022/06/17 09:50:23;;;;;;;7.95;3.17;;;;;;;19.95;98.93;101828.66;4859129;29;20018;-82
2022/06/17 09:53:02;;;;;;;6.95;2.47;;;;;;;20.13;95.34;101819.53;4853089;29;20062;-83
2022/06/17 09:55:42;;;;;;;9.80;2.50;;;;;;;20.37;94.49;101808.56;4849971;29;20369;-82
2022/06/17 09:58:15;;;;;;;4.53;1.92;;;;;;;20.49;92.41;101827.69;4861151;29;20029;-82
2022/06/17 10:00:48;;;;;;;4.43;1.83;;;;;;;20.63;91.84;101840.91;4864341;29;20033;-82
2022/06/17 10:03:35;;;;;;;6.00;1.88;;;;;;;20.73;90.56;101836.69;4846180;29;20044;-81
2022/06/17 10:06:23;;;;;;;5.80;2.00;;;;;;;20.71;91.28;101836.13;4854234;29;20085;-81
2022/06/17 10:09:22;;;;;;;8.02;2.17;;;;;;;20.59;91.77;101834.22;4855367;29;20045;-83
2022/06/17 10:12:27;;;;;;;6.80;1.95;;;;;;;20.63;91.21;101832.69;4861837;29;20049;-83
2022/06/17 10:15:14;;;;;;;9.07;2.13;;;;;;;20.94;90.23;101841.50;4861965;29;20032;-81
2022/06/17 10:18:34;;;;;;;8.35;2.35;;;;;;;20.87;89.71;101829.88;4860134;29;20099;-82
2022/06/17 10:21:23;;;;;;;6.57;2.40;;;;;;;21.02;88.93;101823.88;4861955;29;20034;-82
2022/06/17 10:23:57;;;;;;;8.35;2.10;;;;;;;21.15;88.15;101831.78;4839094;29;20448;-81
2022/06/17 10:26:38;;;;;;;;;;;;;;;21.10;86.70;101829.78;4860575;29;20022;-82
2022/06/17 10:29:16;;;;;;;8.93;1.88;;;;;;;21.19;86.47;101826.66;4870506;29;19927;-83
2022/06/17 10:31:45;;;;;;;6.30;1.88;;;;;;;21.15;85.51;101818.09;4854034;29;20045;-84
2022/06/17 10:34:21;;;;;;;5.38;2.05;;;;;;;21.41;84.31;101827.66;4867596;29;20064;-82
2022/06/17 10:36:50;;;;;;;3.97;1.88;;;;;;;21.34;84.16;101827.81;4855940;29;20449;-83
2022/06/17 10:39:21;;;;;;;6.90;1.80;;;;;;;21.50;83.81;101828.91;4841454;29;20065;-82
2022/06/17 10:41:47;;;;;;;5.75;1.80;;;;;;;21.46;83.08;101814.06;4858672;29;20030;-80
2022/06/17 10:44:16;;;;;;;5.38;1.98;;;;;;;21.64;82.36;101837.63;4861074;29;20524;-83
2022/06/17 10:46:56;;;;;;;4.13;1.90;;;;;;;21.47;82.22;101839.53;4851600;29;20058;-82
2022/06/17 10:49:36;;;;;;;3.20;1.63;;;;;;;21.51;82.36;101833.28;4853142;29;20061;-81
2022/06/17 10:52:03;;;;;;;4.72;1.60;;;;;;;21.62;83.05;101844.44;4845921;29;20034;-82
2022/06/17 10:54:32;;;;;;;5.13;1.50;;;;;;;21.83;81.23;101832.75;4858673;29;20030;-83
2022/06/17 10:57:21;;;;;;;4.57;1.45;;;;;;;21.72;79.75;101839.97;4855453;29;20049;-82
2022/06/17 10:59:46;;;;;;;4.53;1.17;;;;;;;21.68;79.79;101829.75;4858036;29;20093;-82
2022/06/17 11:02:21;;;;;;;4.55;1.30;;;;;;;21.96;79.43;101848.84;4854880;29;20041;-83
2022/06/17 11:04:55;;;;;;;2.83;1.20;;;;;;;22.01;78.19;101828.91;4856069;29;20037;-82
2022/06/17 11:07:58;;;;;;;3.60;1.30;;;;;;;22.21;76.95;101840.19;4867395;29;20037;-80
2022/06/17 11:10:27;;;;;;;2.65;1.10;;;;;;;22.01;77.10;101813.28;4852947;29;20026;-82
2022/06/17 11:13:01;;;;;;;3.47;1.20;;;;;;;22.45;76.58;101835.34;4852073;29;20030;-82
2022/06/17 11:15:30;;;;;;;3.92;1.33;;;;;;;22.40;76.13;101838.00;4857907;29;20030;-83
2022/06/17 11:18:05;;;;;;;4.45;1.38;;;;;;;22.47;74.18;101822.19;4862232;29;20147;-82
2022/06/17 11:20:34;;;;;;;2.88;1.10;;;;;;;22.35;73.60;101823.38;4864013;29;20025;-81
2022/06/17 11:23:04;;;;;;;1.48;0.90;;;;;;;22.31;73.77;101817.59;4864618;29;20012;-81
2022/06/17 11:25:40;;;;;;;3.00;1.30;;;;;;;22.40;74.35;101838.00;4877924;29;20034;-83
2022/06/17 11:28:11;;;;;;;4.97;1.65;;;;;;;22.35;75.52;101845.31;4850067;29;20033;-83
2022/06/17 11:30:48;;;;;;;5.07;1.50;;;;;;;22.34;73.15;101839.03;4865368;29;20049;-83
2022/06/17 11:33:30;;;;;;;4.15;1.20;;;;;;;21.84;72.55;101751.38;4889595;24;20140;-84
2022/06/17 11:36:15;;;;;;;4.70;1.30;;;;;;;22.14;72.29;101792.09;4841766;29;20042;-82
2022/06/17 11:38:42;;;;;;;2.53;1.20;;;;;;;22.10;71.73;101771.75;4829674;29;20038;-81
2022/06/17 11:41:09;;;;;;;3.80;1.27;;;;;;;21.96;71.32;101727.44;4858783;29;20033;-82
2022/06/17 11:43:38;;;;;;;3.45;1.52;;;;;;;22.71;70.77;101846.63;4855592;29;20133;-83
2022/06/17 11:46:28;;;;;;;2.88;1.23;;;;;;;22.35;70.89;101790.47;4859806;29;20033;-82
2022/06/17 11:49:00;;;;;;;3.25;1.40;;;;;;;21.75;70.68;101726.31;4851637;29;20098;-82
2022/06/17 11:51:29;;;;;;;3.85;1.52;;;;;;;21.86;71.72;101761.00;4826194;29;20046;-81
2022/06/17 11:54:02;;;;;;;2.92;1.10;;;;;;;21.94;71.31;101710.41;4826711;29;20363;-84
2022/06/17 11:56:41;;;;;;;4.18;1.38;;;;;;;22.14;71.41;101772.91;4828022;29;20019;-80
2022/06/17 11:59:12;;;;;;;3.75;1.30;;;;;;;22.05;71.54;101723.16;4841344;29;20048;-80
2022/06/17 12:01:38;;;;;;;4.03;1.30;;;;;;;21.90;70.91;101742.16;4830013;29;20095;-81
2022/06/17 12:04:04;;;;;;;3.25;1.20;;;;;;;22.64;70.90;101843.25;4809860;29;20035;-78
2022/06/17 12:06:44;;;;;;;4.57;1.38;;;;;;;22.72;70.67;101835.41;4810074;29;20061;-78
2022/06/17 12:09:17;;;;;;;3.75;1.45;;;;;;;22.79;70.32;101829.75;4826516;29;20457;-78
2022/06/17 12:11:53;;;;;;;3.97;1.40;;;;;;;22.53;70.12;101803.91;4826143;29;20033;-79
2022/06/17 12:14:27;;;;;;;4.80;1.30;;;;;;;22.73;68.41;101834.31;4815831;29;20764;-77
2022/06/17 12:16:54;;;;;;;6.67;1.33;;;;;;;22.70;69.02;101801.91;4814943;29;20170;-77
2022/06/17 12:19:21;;;;;;;5.25;1.48;;;;;;;22.79;68.34;101826.16;4828907;29;20748;-77
2022/06/17 12:21:55;;;;;;;3.20;1.33;;;;;;;22.74;67.68;101829.66;4832380;29;20364;-78
2022/06/17 12:24:53;;;;;;;5.55;1.30;;;;;;;22.74;68.34;101824.19;4817785;29;20056;-78